createdAt,value
2019-04-10T00:00:24.492Z,92.7
2019-04-10T00:03:40.087Z,92.5
2019-04-10T00:06:18.797Z,92.5
2019-04-10T00:09:10.716Z,92.3
2019-04-10T00:12:05.824Z,92.4
2019-04-10T00:15:00.989Z,92.6
2019-04-10T00:17:56.097Z,92.5
2019-04-10T00:20:51.197Z,92.4
2019-04-10T00:23:45.247Z,92.3
2019-04-10T00:26:40.338Z,92.5
2019-04-10T00:29:36.425Z,92.4
2019-04-10T00:32:30.633Z,92.1
2019-04-10T00:35:26.050Z,92.1
2019-04-10T00:38:21.895Z,92.2
2019-04-10T00:41:16.831Z,92.3
2019-04-10T00:44:11.632Z,92.3
2019-04-10T00:47:07.070Z,92.5
2019-04-10T00:50:02.462Z,92.5
2019-04-10T00:52:57.234Z,92.7
2019-04-10T00:55:52.391Z,92.4
2019-04-10T00:58:46.374Z,92.5
2019-04-10T01:01:41.443Z,92.5
2019-04-10T01:04:36.680Z,92.8
2019-04-10T01:07:44.136Z,93.1
2019-04-10T01:10:26.781Z,92.7
2019-04-10T01:13:22.922Z,92.9
2019-04-10T01:16:18.308Z,93.1
2019-04-10T01:19:12.549Z,93.1
2019-04-10T01:22:07.056Z,93.1
2019-04-10T01:25:02.697Z,93.1
2019-04-10T01:27:58.172Z,92.7
2019-04-10T01:30:53.230Z,92.6
2019-04-10T01:33:47.917Z,92.4
2019-04-10T01:36:42.425Z,92.3
2019-04-10T01:39:38.550Z,92.3
2019-04-10T01:42:32.873Z,92.3
2019-04-10T01:45:27.766Z,92.4
2019-04-10T01:48:22.589Z,92.5
2019-04-10T01:51:17.707Z,92.6
2019-04-10T01:54:13.530Z,92.7
2019-04-10T01:57:08.662Z,92.5
2019-04-10T02:00:03.249Z,92.6
2019-04-10T02:02:58.456Z,92.6
2019-04-10T02:05:53.165Z,92.7
2019-04-10T02:08:48.303Z,92.7
2019-04-10T02:11:43.099Z,92.9
2019-04-10T02:14:39.071Z,92.9
2019-04-10T02:17:33.153Z,92.8
2019-04-10T02:20:28.910Z,93.2
2019-04-10T02:23:23.079Z,93.1
2019-04-10T02:26:19.221Z,93.2
2019-04-10T02:29:13.077Z,93.3
2019-04-10T02:32:10.137Z,93.2
2019-04-10T02:35:09.104Z,93.3
2019-04-10T02:38:42.856Z,93.4
2019-04-10T02:40:57.117Z,94
2019-04-10T02:43:48.135Z,93.7
2019-04-10T02:46:43.290Z,93.7
2019-04-10T02:49:40.528Z,93.8
2019-04-10T02:52:35.478Z,93.7
2019-04-10T02:55:29.281Z,93.7
2019-04-10T02:58:25.155Z,93.7
2019-04-10T03:01:19.962Z,93.7
2019-04-10T03:04:13.849Z,93.6
2019-04-10T03:07:11.363Z,93.7
2019-04-10T03:10:36.522Z,93.8
2019-04-10T03:13:00.862Z,93.6
2019-04-10T03:15:56.073Z,93.7
2019-04-10T03:18:47.828Z,93.5
2019-04-10T03:21:43.514Z,93.6
2019-04-10T03:24:38.621Z,93.6
2019-04-10T03:27:32.947Z,93.6
2019-04-10T03:30:34.023Z,93.4
2019-04-10T03:33:34.901Z,93.4
2019-04-10T03:36:19.189Z,93.4
2019-04-10T03:39:13.726Z,93.4
2019-04-10T03:42:08.984Z,93.4
2019-04-10T03:45:03.778Z,93.5
2019-04-10T03:47:58.519Z,93.5
2019-04-10T03:50:53.975Z,93.4
2019-04-10T03:53:49.118Z,93.4
2019-04-10T03:56:43.028Z,93.6
2019-04-10T03:59:42.155Z,93.6
2019-04-10T04:02:33.128Z,93.7
2019-04-10T04:05:29.257Z,93.8
2019-04-10T04:08:24.002Z,93.9
2019-04-10T04:11:17.930Z,93.7
2019-04-10T04:14:13.008Z,93.8
2019-04-10T04:17:08.250Z,93.5
2019-04-10T04:20:03.076Z,93.6
2019-04-10T04:22:58.155Z,93.8
2019-04-10T04:25:53.099Z,93.8
2019-04-10T04:28:48.083Z,93.6
2019-04-10T04:31:44.169Z,93.7
2019-04-10T04:34:38.989Z,93.6
2019-04-10T04:37:34.068Z,93.7
2019-04-10T04:40:28.400Z,93.8
2019-04-10T04:43:25.011Z,93.8
2019-04-10T04:46:18.866Z,93.7
2019-04-10T04:49:14.162Z,93.8
2019-04-10T04:52:14.258Z,94.1
2019-04-10T04:55:04.380Z,94
2019-04-10T04:57:58.268Z,94.2
2019-04-10T05:00:54.437Z,94.2
2019-04-10T05:03:48.936Z,94
2019-04-10T05:06:44.220Z,94
2019-04-10T05:09:42.273Z,94.1
2019-04-10T05:12:34.350Z,94
2019-04-10T05:15:29.497Z,94
2019-04-10T05:18:23.674Z,94
2019-04-10T05:21:19.586Z,93.9
2019-04-10T05:24:14.200Z,93.8
2019-04-10T05:27:08.407Z,93.9
2019-04-10T05:30:04.583Z,93.8
2019-04-10T05:32:58.423Z,93.6
2019-04-10T05:35:53.448Z,93.9
2019-04-10T05:38:48.744Z,93.7
2019-04-10T05:41:44.456Z,93.4
2019-04-10T05:44:38.665Z,93.6
2019-04-10T05:47:34.593Z,94
2019-04-10T05:50:28.567Z,93.3
2019-04-10T05:53:24.681Z,93.6
2019-04-10T05:56:20.806Z,93.8
2019-04-10T05:59:16.511Z,93.5
2019-04-10T06:02:09.827Z,93.2
2019-04-10T06:05:03.720Z,93.4
2019-04-10T06:07:59.794Z,93.4
2019-04-10T06:10:53.785Z,93.5
2019-04-10T06:13:49.097Z,93.3
2019-04-10T06:16:45.178Z,93.5
2019-04-10T06:19:38.788Z,93.6
2019-04-10T06:22:35.137Z,93.7
2019-04-10T06:25:35.413Z,93.5
2019-04-10T06:28:29.611Z,93.4
2019-04-10T06:31:19.242Z,93.5
2019-04-10T06:34:18.976Z,93.3
2019-04-10T06:37:10.268Z,93.4
2019-04-10T06:40:22.921Z,93.3
2019-04-10T06:43:01.149Z,93.3
2019-04-10T06:45:53.987Z,93.5
2019-04-10T06:48:50.101Z,93.4
2019-04-10T06:51:45.216Z,93.2
2019-04-10T06:54:39.099Z,93.4
2019-04-10T06:57:57.377Z,93.3
2019-04-10T07:00:29.198Z,93.3
2019-04-10T07:03:45.606Z,93.3
2019-04-10T07:06:47.029Z,93.3
2019-04-10T07:09:14.424Z,93.3
2019-04-10T07:12:10.169Z,93.3
2019-04-10T07:15:04.734Z,93.1
2019-04-10T07:17:59.362Z,93.4
2019-04-10T07:21:02.098Z,93.4
2019-04-10T07:23:49.519Z,93.6
2019-04-10T07:26:50.890Z,93.7
2019-04-10T07:29:40.495Z,93.5
2019-04-10T07:32:34.483Z,93.4
2019-04-10T07:35:36.901Z,93.2
2019-04-10T07:38:25.157Z,93.5
2019-04-10T07:41:26.435Z,93.4
2019-04-10T07:44:14.573Z,93.2
2019-04-10T07:47:09.622Z,93.3
2019-04-10T07:50:09.160Z,92.8
2019-04-10T07:53:00.340Z,93
2019-04-10T07:56:13.393Z,92.7
2019-04-10T07:58:50.001Z,93
2019-04-10T08:01:45.127Z,92.8
2019-04-10T08:04:40.300Z,92.7
2019-04-10T08:07:40.679Z,92.8
2019-04-10T08:10:31.186Z,91.8
2019-04-10T08:13:26.877Z,92.2
2019-04-10T08:16:21.524Z,91.7
2019-04-10T08:19:17.068Z,91.9
2019-04-10T08:22:11.075Z,91
2019-04-10T08:25:07.025Z,91
2019-04-10T08:28:01.307Z,91
2019-04-10T08:30:59.015Z,91.3
2019-04-10T08:33:52.758Z,91.1
2019-04-10T08:36:47.992Z,90.1
2019-04-10T08:39:50.594Z,90.9
2019-04-10T08:42:37.791Z,90.1
2019-04-10T08:45:52.015Z,89.8
2019-04-10T08:48:32.957Z,90.2
2019-04-10T08:51:23.555Z,90.1
2019-04-10T08:54:18.551Z,90.4
2019-04-10T08:57:13.790Z,89.8
2019-04-10T09:00:08.658Z,90.3
2019-04-10T09:03:02.954Z,90.4
2019-04-10T09:05:58.918Z,90.1
2019-04-10T09:08:53.562Z,88.7
2019-04-10T09:11:48.018Z,87
2019-04-10T09:14:43.890Z,88.8
2019-04-10T09:17:38.265Z,89.3
2019-04-10T09:20:33.620Z,88.9
2019-04-10T09:23:53.289Z,89
2019-04-10T09:26:24.896Z,88.1
2019-04-10T09:29:24.185Z,89.4
2019-04-10T09:32:15.076Z,89.6
2019-04-10T09:35:09.420Z,89.9
2019-04-10T09:38:04.713Z,89.4
2019-04-10T09:40:59.588Z,88.6
2019-04-10T09:43:54.716Z,88
2019-04-10T09:46:50.128Z,88.2
2019-04-10T09:49:47.458Z,88.1
2019-04-10T09:52:40.244Z,87.4
2019-04-10T09:55:36.423Z,86.8
2019-04-10T09:58:31.767Z,88
2019-04-10T10:01:28.816Z,87.2
2019-04-10T10:04:22.006Z,87.3
2019-04-10T10:07:16.886Z,86.9
2019-04-10T10:10:11.332Z,87.3
2019-04-10T10:13:07.583Z,86.9
2019-04-10T10:16:02.818Z,87.2
2019-04-10T10:18:57.837Z,88
2019-04-10T10:21:52.970Z,87.7
2019-04-10T10:24:47.300Z,88.1
2019-04-10T10:27:43.161Z,89.2
2019-04-10T10:30:38.144Z,88.8
2019-04-10T10:33:32.556Z,88.2
2019-04-10T10:36:47.420Z,87.6
2019-04-10T10:39:23.566Z,88.3
2019-04-10T10:42:19.464Z,88.9
2019-04-10T10:45:14.372Z,89.6
2019-04-10T10:48:09.262Z,89.5
2019-04-10T10:51:04.686Z,90
2019-04-10T10:54:05.559Z,90.3
2019-04-10T10:56:53.728Z,90.6
2019-04-10T10:59:49.846Z,90.7
2019-04-10T11:02:44.145Z,90.3
2019-04-10T11:05:39.282Z,90.5
2019-04-10T11:08:35.575Z,90
2019-04-10T11:11:30.871Z,90.4
2019-04-10T11:14:25.779Z,90.8
2019-04-10T11:17:20.468Z,91.1
2019-04-10T11:20:15.729Z,90.8
2019-04-10T11:23:11.976Z,91
2019-04-10T11:26:05.243Z,90.8
2019-04-10T11:29:01.950Z,90.6
2019-04-10T11:31:56.134Z,90.8
2019-04-10T11:34:51.200Z,90.5
2019-04-10T11:37:51.897Z,90.3
2019-04-10T11:40:42.127Z,90.6
2019-04-10T11:43:38.283Z,90
2019-04-10T11:48:32.458Z,89.6
2019-04-10T11:49:33.891Z,90.4
2019-04-10T11:52:46.413Z,90.4
2019-04-10T11:57:22.942Z,90.1
2019-04-10T12:00:22.525Z,90.4
2019-04-10T12:01:09.034Z,90.1
2019-04-10T12:04:10.747Z,90.2
2019-04-10T12:07:03.882Z,90.2
2019-04-10T12:12:48.653Z,90
2019-04-10T12:15:43.583Z,90.3
2019-04-10T12:18:38.869Z,90.4
2019-04-10T12:21:34.118Z,90.1
2019-04-10T12:24:28.213Z,90.3
2019-04-10T12:27:23.549Z,90.3
2019-04-10T12:30:20.788Z,90.5
2019-04-10T12:33:14.079Z,90.1
2019-04-10T12:36:08.671Z,90.2
2019-04-10T12:39:04.219Z,90.1
2019-04-10T12:42:00.067Z,90.2
2019-04-10T12:44:54.043Z,90.4
2019-04-10T12:47:50.335Z,90.8
2019-04-10T12:50:45.407Z,91
2019-04-10T12:53:40.491Z,90.9
2019-04-10T12:56:35.089Z,91.2
2019-04-10T12:59:29.556Z,91.3
2019-04-10T13:02:24.639Z,91.4
2019-04-10T13:05:21.029Z,91.4
2019-04-10T13:08:47.091Z,91.7
2019-04-10T13:11:10.631Z,91.5
2019-04-10T13:14:04.958Z,91.8
2019-04-10T13:17:01.049Z,91.8
2019-04-10T13:19:56.115Z,91.9
2019-04-10T13:22:51.146Z,92
2019-04-10T13:26:05.491Z,91.9
2019-04-10T13:28:41.420Z,92
2019-04-10T13:31:35.611Z,92.1
2019-04-10T13:34:30.256Z,92.4
2019-04-10T13:37:26.332Z,92.4
2019-04-10T13:40:20.263Z,92.3
2019-04-10T13:43:16.418Z,92.4
2019-04-10T13:46:11.299Z,92.4
2019-04-10T13:49:06.447Z,92.5
2019-04-10T13:52:01.455Z,92.4
2019-04-10T13:54:55.324Z,92.4
2019-04-10T13:57:51.295Z,92.6
2019-04-10T14:00:45.634Z,92.6
2019-04-10T14:03:45.176Z,92.5
2019-04-10T14:06:36.474Z,92.7
2019-04-10T14:09:51.896Z,92.5
2019-04-10T14:12:25.484Z,92.4
2019-04-10T14:15:20.742Z,92.6
2019-04-10T14:18:16.754Z,92.8
2019-04-10T14:21:17.393Z,92.8
2019-04-10T14:24:05.827Z,92.7
2019-04-10T14:27:00.662Z,92.6
2019-04-10T14:29:56.790Z,93
2019-04-10T14:32:51.967Z,92.9
2019-04-10T14:35:45.857Z,93
2019-04-10T14:38:41.722Z,93
2019-04-10T14:41:36.465Z,92.9
2019-04-10T14:44:31.132Z,92.3
2019-04-10T14:47:26.054Z,92.5
2019-04-10T14:50:22.031Z,92.8
2019-04-10T14:53:17.270Z,92.8
2019-04-10T14:56:10.938Z,92.8
2019-04-10T14:59:05.951Z,92.8
2019-04-10T15:02:02.381Z,92.7
2019-04-10T15:04:56.079Z,92.6
2019-04-10T15:07:51.583Z,92.9
2019-04-10T15:10:46.114Z,92.7
2019-04-10T15:13:42.475Z,92.7
2019-04-10T15:19:32.429Z,92.2
2019-04-10T15:34:06.213Z,92.4
2019-04-10T15:37:01.546Z,92.6
2019-04-10T15:39:56.509Z,92.8
2019-04-10T15:42:52.431Z,93
2019-04-10T15:45:46.867Z,93.2
2019-04-10T15:48:42.336Z,93.3
2019-04-10T15:51:36.864Z,93.5
2019-04-10T15:54:32.607Z,93.4
2019-04-10T15:57:27.421Z,93.3
2019-04-10T16:00:21.721Z,93.4
2019-04-10T16:03:17.611Z,93.4
2019-04-10T16:06:11.656Z,93.4
2019-04-10T16:09:07.628Z,93.6
2019-04-10T16:12:02.788Z,93.6
2019-04-10T16:14:57.531Z,93.6
2019-04-10T16:17:52.963Z,93.6
2019-04-10T16:20:47.745Z,93.6
2019-04-10T16:29:32.404Z,93.5
2019-04-10T16:32:27.001Z,93.5
2019-04-10T16:35:21.589Z,93.5
2019-04-10T16:44:06.256Z,93.3
2019-04-10T16:55:47.261Z,93.4
2019-04-10T17:01:37.244Z,93.6
2019-04-10T17:07:27.571Z,93.4
2019-04-10T17:16:11.135Z,93.1
2019-04-10T17:22:01.032Z,92.9
2019-04-10T17:24:56.324Z,92.9
2019-04-10T17:27:52.194Z,92.8
2019-04-10T17:30:46.898Z,92.7
2019-04-10T17:36:37.314Z,93
2019-04-10T17:45:21.134Z,93.3
2019-04-10T17:59:57.098Z,93.4
2019-04-10T18:05:47.276Z,93.1
2019-04-10T18:11:37.083Z,93.1
2019-04-10T18:23:16.201Z,93.2
2019-04-10T18:29:06.498Z,93.3
2019-04-10T18:32:02.935Z,93.4
2019-04-10T18:34:56.339Z,93.4
2019-04-10T18:37:51.320Z,93.5
2019-04-10T18:46:37.755Z,93.8
2019-04-10T18:52:27.574Z,93.9
2019-04-10T18:55:22.653Z,93.8
2019-04-10T19:01:16.191Z,93.8
2019-04-10T19:07:01.481Z,93.5
2019-04-10T19:09:57.121Z,93.7
2019-04-10T19:12:51.484Z,93.7
2019-04-10T19:15:47.459Z,93.6
2019-04-10T19:21:37.806Z,93.6
2019-04-10T19:24:34.117Z,93.6
2019-04-10T19:27:28.543Z,93.7
2019-04-10T19:30:21.686Z,93.7
2019-04-10T19:33:16.708Z,93.7
2019-04-10T19:36:12.483Z,93.6
2019-04-10T19:39:07.989Z,93.5
2019-04-10T19:42:02.953Z,93.4
2019-04-10T19:44:57.815Z,93.6
2019-04-10T19:47:52.890Z,93.6
2019-04-10T19:53:42.262Z,93.7
2019-04-10T19:56:37.121Z,93.6
2019-04-10T19:59:32.097Z,93.6
2019-04-10T20:05:21.682Z,93.7
2019-04-10T20:08:17.704Z,93.8
2019-04-10T20:11:12.952Z,93.7
2019-04-10T20:20:00.027Z,93.9
2019-04-10T20:28:41.837Z,94.2
2019-04-10T20:37:27.408Z,94.3
2019-04-10T20:52:02.522Z,94.5
2019-04-10T20:54:57.693Z,94.6
2019-04-10T21:00:47.576Z,94.5
2019-04-10T21:03:42.639Z,94.6
2019-04-10T21:06:43.541Z,94.5
2019-04-10T21:24:07.337Z,94.4
2019-04-10T21:29:57.496Z,94.4
2019-04-10T21:50:21.998Z,94
2019-04-10T21:53:16.943Z,94.1
2019-04-10T21:56:12.489Z,94.1
2019-04-10T21:59:06.253Z,93.9
2019-04-10T22:02:01.250Z,94
2019-04-10T22:04:57.416Z,94
2019-04-10T22:07:52.403Z,93.9
2019-04-10T22:10:46.252Z,93.9
2019-04-10T22:13:41.246Z,93.9
2019-04-10T22:16:36.277Z,93.8
2019-04-10T22:19:31.519Z,93.9
2019-04-10T22:22:27.191Z,93.7
2019-04-10T22:25:22.086Z,93.6
2019-04-10T22:28:17.418Z,93.7
2019-04-10T22:34:07.330Z,93.6
2019-04-10T22:37:02.315Z,93.7
2019-04-10T22:39:57.120Z,93.6
2019-04-10T22:48:42.095Z,93.7
2019-04-10T22:54:30.970Z,93.6
2019-04-10T22:57:27.309Z,93.8
2019-04-10T23:00:20.906Z,93.8
2019-04-10T23:03:16.304Z,93.8
2019-04-10T23:06:11.568Z,93.7
2019-04-10T23:09:07.024Z,93.7
2019-04-10T23:12:02.768Z,93.7
2019-04-10T23:17:51.241Z,93.8
2019-04-10T23:20:45.638Z,93.8
2019-04-10T23:32:25.452Z,93.9
2019-04-10T23:44:05.270Z,93.9
2019-04-10T23:49:55.404Z,93.8
2019-04-10T23:55:46.270Z,93.9
2019-04-10T23:58:40.940Z,93.9
